Alm Tesl — YJTS6 — position and weather

sailwx.info

Track history (hours):
 
Tides and Currents Weather Stations Pressure Air Temp Water Temp Dewpoint Dewpoint Depression Visibility Wind Speed Wind Dir Waves Ship Positions

Alm Tesl

Last reported at 2017-Nov-16 13:10 UTC. Time now 2017-Nov-18 04:51 UTC.
Position N 45°09' E 036°28'.

Length 88 m; draft 12.5 m.

Type: Cargo ship. MMSI: 201222000.

Date/timePositionNaut miles runAvg speedWind from/ knotsBaromVisibWave heightAir tempDewpointWater temp
2017-Nov-16 13:10N 45°09' E 036°28'2 9.5
2017-Nov-16 12:57N 45°11' E 036°28'4 8.0
2017-Nov-16 12:31N 45°15' E 036°28'4 7.9
2017-Nov-16 12:00N 45°18' E 036°30'5 9.7
2017-Nov-16 11:31N 45°20' E 036°37'4 8.6
2017-Nov-16 11:01N 45°24' E 036°40'4 7.3
2017-Nov-16 10:31N 45°27' E 036°41'1 2.9
2017-Nov-16 10:01N 45°28' E 036°39'0 0.4
2017-Nov-16 09:31N 45°28' E 036°39'0 0.0
2017-Nov-16 08:58N 45°28' E 036°39'0 0.0
2017-Nov-16 08:31N 45°28' E 036°39'0 0.0
2017-Nov-16 08:01N 45°28' E 036°39'0 0.0
2017-Nov-16 07:28N 45°28' E 036°39'0 0.0
2017-Nov-16 06:58N 45°28' E 036°39'0 0.0
2017-Nov-16 06:28N 45°28' E 036°39'0 0.0
2017-Nov-16 05:58N 45°28' E 036°39'0 0.0
2017-Nov-16 05:31N 45°28' E 036°39'0 0.0
2017-Nov-16 05:01N 45°28' E 036°39'0 0.0
2017-Nov-16 04:31N 45°28' E 036°39'0 0.0
2017-Nov-16 04:01N 45°28' E 036°39'0 0.0
2017-Nov-16 03:28N 45°28' E 036°39'0 0.0
2017-Nov-16 02:58N 45°28' E 036°39'0 0.0
2017-Nov-16 02:31N 45°28' E 036°39'0 0.0
2017-Nov-16 01:58N 45°28' E 036°39'0 0.0
2017-Nov-16 01:31N 45°28' E 036°39'0 0.0
2017-Nov-16 00:58N 45°28' E 036°39'0 0.0
2017-Nov-16 00:31N 45°28' E 036°39'0 0.0
2017-Nov-15 23:58N 45°28' E 036°39'0 0.0
2017-Nov-15 23:28N 45°28' E 036°39'0 0.0
2017-Nov-15 22:58N 45°28' E 036°39'0 0.0
2017-Nov-15 22:31N 45°28' E 036°39'0 0.0
2017-Nov-15 22:01N 45°28' E 036°39'0 0.0
2017-Nov-15 21:31N 45°28' E 036°39'0 0.2
2017-Nov-15 21:00N 45°28' E 036°39'3 6.4
2017-Nov-15 20:30N 45°30' E 036°43'  
2017-Nov-08 19:32N 45°30' E 036°53'0 9.6
2017-Nov-08 19:30N 45°30' E 036°53'5 9.5
2017-Nov-08 19:00N 45°28' E 036°47'4 8.6
2017-Nov-08 18:30N 45°26' E 036°41'5 9.1
2017-Nov-08 18:01N 45°22' E 036°40'3 5.8
2017-Nov-08 17:31N 45°20' E 036°37'3 5.2
2017-Nov-08 17:00N 45°19' E 036°34'3 6.2
2017-Nov-08 16:31N 45°18' E 036°29'3 6.0
2017-Nov-08 16:00N 45°15' E 036°29'3 5.0
2017-Nov-08 15:31N 45°13' E 036°31'0 0.1
2017-Nov-08 13:08N 45°13' E 036°31'0 0.1
2017-Nov-08 12:47N 45°13' E 036°31'1 1.9
2017-Nov-08 12:30N 45°13' E 036°30'4 7.9
2017-Nov-08 12:00N 45°09' E 036°28'  
Track history (hours):
 
Tides and Currents Weather Stations Pressure Air Temp Water Temp Dewpoint Dewpoint Depression Visibility Wind Speed Wind Dir Waves Ship Positions

Alm Tesl

Last reported at 2017-Nov-16 13:10 UTC. Time now 2017-Nov-18 04:51 UTC.
Position N 45°09' E 036°28'.

Length 88 m; draft 12.5 m.

Type: Cargo ship. MMSI: 201222000.

Date/timePositionNaut miles runAvg speedWind from/ knotsBaromVisibWave heightAir tempDewpointWater temp
2017-Nov-16 13:10N 45°09' E 036°28'2 9.5
2017-Nov-16 12:57N 45°11' E 036°28'4 8.0
2017-Nov-16 12:31N 45°15' E 036°28'4 7.9
2017-Nov-16 12:00N 45°18' E 036°30'5 9.7
2017-Nov-16 11:31N 45°20' E 036°37'4 8.6
2017-Nov-16 11:01N 45°24' E 036°40'4 7.3
2017-Nov-16 10:31N 45°27' E 036°41'1 2.9
2017-Nov-16 10:01N 45°28' E 036°39'0 0.4
2017-Nov-16 09:31N 45°28' E 036°39'0 0.0
2017-Nov-16 08:58N 45°28' E 036°39'0 0.0
2017-Nov-16 08:31N 45°28' E 036°39'0 0.0
2017-Nov-16 08:01N 45°28' E 036°39'0 0.0
2017-Nov-16 07:28N 45°28' E 036°39'0 0.0
2017-Nov-16 06:58N 45°28' E 036°39'0 0.0
2017-Nov-16 06:28N 45°28' E 036°39'0 0.0
2017-Nov-16 05:58N 45°28' E 036°39'0 0.0
2017-Nov-16 05:31N 45°28' E 036°39'0 0.0
2017-Nov-16 05:01N 45°28' E 036°39'0 0.0
2017-Nov-16 04:31N 45°28' E 036°39'0 0.0
2017-Nov-16 04:01N 45°28' E 036°39'0 0.0
2017-Nov-16 03:28N 45°28' E 036°39'0 0.0
2017-Nov-16 02:58N 45°28' E 036°39'0 0.0
2017-Nov-16 02:31N 45°28' E 036°39'0 0.0
2017-Nov-16 01:58N 45°28' E 036°39'0 0.0
2017-Nov-16 01:31N 45°28' E 036°39'0 0.0
2017-Nov-16 00:58N 45°28' E 036°39'0 0.0
2017-Nov-16 00:31N 45°28' E 036°39'0 0.0
2017-Nov-15 23:58N 45°28' E 036°39'0 0.0
2017-Nov-15 23:28N 45°28' E 036°39'0 0.0
2017-Nov-15 22:58N 45°28' E 036°39'0 0.0
2017-Nov-15 22:31N 45°28' E 036°39'0 0.0
2017-Nov-15 22:01N 45°28' E 036°39'0 0.0
2017-Nov-15 21:31N 45°28' E 036°39'0 0.2
2017-Nov-15 21:00N 45°28' E 036°39'3 6.4
2017-Nov-15 20:30N 45°30' E 036°43'  
2017-Nov-08 19:32N 45°30' E 036°53'0 9.6
2017-Nov-08 19:30N 45°30' E 036°53'5 9.5
2017-Nov-08 19:00N 45°28' E 036°47'4 8.6
2017-Nov-08 18:30N 45°26' E 036°41'5 9.1
2017-Nov-08 18:01N 45°22' E 036°40'3 5.8
2017-Nov-08 17:31N 45°20' E 036°37'3 5.2
2017-Nov-08 17:00N 45°19' E 036°34'3 6.2
2017-Nov-08 16:31N 45°18' E 036°29'3 6.0
2017-Nov-08 16:00N 45°15' E 036°29'3 5.0
2017-Nov-08 15:31N 45°13' E 036°31'0 0.1
2017-Nov-08 13:08N 45°13' E 036°31'0 0.1
2017-Nov-08 12:47N 45°13' E 036°31'1 1.9
2017-Nov-08 12:30N 45°13' E 036°30'4 7.9
2017-Nov-08 12:00N 45°09' E 036°28'  

Dump ship's entire track history